Time;durP1;ratioP1;P1;durP2;ratioP2;P2;SDS_P1;SDS_P2;PMS_P1;PMS_P2;Temp;Humidity;BMP_temperature;BMP_pressure;BME280_temperature;BME280_humidity;BME280_pressure;Samples;Min_cycle;Max_cycle;Signal;HPM_P1;HPM_P2
2023/03/10 00:01:47;;;;;;;11.80;9.43;;;;;;;-2.16;100.00;99443.09;5030190;28;20323;-43
2023/03/10 00:04:14;;;;;;;15.68;10.60;;;;;;;-2.18;100.00;99441.38;5030330;28;20203;-42
2023/03/10 00:06:40;;;;;;;14.70;10.20;;;;;;;-2.14;100.00;99446.56;5030419;28;20550;-41
2023/03/10 00:09:06;;;;;;;20.02;11.20;;;;;;;-2.19;100.00;99437.84;5030478;28;20169;-40
2023/03/10 00:11:32;;;;;;;16.13;10.77;;;;;;;-2.24;100.00;99431.78;5028845;28;20197;-43
2023/03/10 00:13:58;;;;;;;13.77;10.52;;;;;;;-2.18;100.00;99428.25;5030316;28;20184;-45
2023/03/10 00:16:28;;;;;;;14.75;10.45;;;;;;;-2.11;100.00;99430.78;5030352;28;20244;-42
2023/03/10 00:18:54;;;;;;;14.55;10.98;;;;;;;-2.07;100.00;99439.50;5030104;28;20612;-43
2023/03/10 00:21:26;;;;;;;15.38;10.82;;;;;;;-2.16;100.00;99424.72;5030373;28;20170;-44
2023/03/10 00:23:52;;;;;;;15.88;11.15;;;;;;;-2.30;100.00;99416.09;5030013;28;20200;-42
2023/03/10 00:26:20;;;;;;;16.02;11.23;;;;;;;-2.21;100.00;99420.38;5030553;28;20199;-44
2023/03/10 00:28:46;;;;;;;18.40;12.25;;;;;;;-2.29;100.00;99423.09;5033698;28;20221;-45
2023/03/10 00:31:17;;;;;;;17.52;11.98;;;;;;;-2.22;100.00;99418.66;5033819;28;20206;-43
2023/03/10 00:33:43;;;;;;;17.75;12.45;;;;;;;-2.25;100.00;99422.19;5032740;28;20682;-42
2023/03/10 00:36:17;;;;;;;17.73;11.98;;;;;;;-2.30;100.00;99418.72;5038426;28;20186;-40
2023/03/10 00:38:44;;;;;;;16.52;11.73;;;;;;;-2.18;100.00;99405.50;5040269;28;20214;-41
2023/03/10 00:41:18;;;;;;;18.80;12.52;;;;;;;-2.25;100.00;99395.94;5045695;28;20222;-44
2023/03/10 00:43:44;;;;;;;22.05;13.20;;;;;;;-2.14;100.00;99393.22;5041760;28;20293;-41
2023/03/10 00:46:11;;;;;;;20.17;13.13;;;;;;;-2.11;100.00;99390.56;5041244;28;20227;-42
2023/03/10 00:48:36;;;;;;;24.70;15.25;;;;;;;-2.00;100.00;99380.81;5032646;28;20607;-42
2023/03/10 00:51:03;;;;;;;20.88;14.23;;;;;;;-1.93;100.00;99377.22;5050621;28;20196;-44
2023/03/10 00:53:29;;;;;;;21.00;13.95;;;;;;;-1.86;100.00;99375.41;5042590;28;20199;-42
2023/03/10 00:55:58;;;;;;;20.80;15.32;;;;;;;-1.78;100.00;99368.31;5047005;28;20187;-42
2023/03/10 00:58:24;;;;;;;24.00;14.77;;;;;;;-1.78;100.00;99360.44;5040433;28;20178;-43
2023/03/10 01:00:50;;;;;;;23.45;16.05;;;;;;;-1.65;100.00;99358.53;5045425;28;20557;-40
2023/03/10 01:03:15;;;;;;;23.10;16.85;;;;;;;-1.63;100.00;99355.91;5043908;28;20210;-43
2023/03/10 01:05:41;;;;;;;24.27;16.33;;;;;;;-1.58;100.00;99346.19;5043936;28;20251;-42
2023/03/10 01:08:07;;;;;;;29.02;16.73;;;;;;;-1.59;100.00;99349.72;5035919;28;20180;-44
2023/03/10 01:10:32;;;;;;;23.67;16.42;;;;;;;-1.62;100.00;99347.13;5049501;28;20194;-43
2023/03/10 01:12:58;;;;;;;25.15;17.25;;;;;;;-1.54;100.00;99333.00;5041408;28;20516;-41
2023/03/10 01:15:25;;;;;;;26.27;17.48;;;;;;;-1.55;100.00;99351.41;5045926;28;20180;-41
2023/03/10 01:17:50;;;;;;;25.08;16.77;;;;;;;-1.42;100.00;99342.50;5039326;28;20184;-43
2023/03/10 01:20:17;;;;;;;26.27;18.02;;;;;;;-1.38;100.00;99325.78;5046782;28;20267;-43
2023/03/10 01:22:43;;;;;;;22.77;16.98;;;;;;;-1.40;100.00;99322.34;5042467;28;20642;-43
2023/03/10 01:25:13;;;;;;;23.35;16.95;;;;;;;-1.37;100.00;99317.03;5045354;28;20168;-41
2023/03/10 01:27:40;;;;;;;24.15;17.20;;;;;;;-1.37;100.00;99319.66;5036938;28;20241;-42
2023/03/10 01:30:06;;;;;;;26.05;18.27;;;;;;;-1.26;100.00;99320.34;5042223;28;20184;-43
2023/03/10 01:32:32;;;;;;;29.90;18.55;;;;;;;-1.34;100.00;99309.09;5041540;28;20200;-44
2023/03/10 01:34:57;;;;;;;26.15;17.67;;;;;;;-1.28;100.00;99308.13;5042648;28;20184;-43
2023/03/10 01:37:24;;;;;;;26.05;18.23;;;;;;;-1.23;100.00;99302.81;5045856;28;20270;-43
2023/03/10 01:39:50;;;;;;;24.50;17.80;;;;;;;-1.21;100.00;99301.03;5041174;28;20532;-41
2023/03/10 01:42:15;;;;;;;24.10;17.02;;;;;;;-1.20;100.00;99294.88;5042473;28;20204;-43
2023/03/10 01:44:41;;;;;;;26.70;19.17;;;;;;;-1.16;100.00;99301.81;5040557;28;20212;-42
2023/03/10 01:47:06;;;;;;;24.83;17.83;;;;;;;-1.13;100.00;99279.00;5043009;28;20542;-43
2023/03/10 01:49:42;;;;;;;28.73;18.65;;;;;;;-1.19;100.00;99275.59;5036844;28;20214;-41
2023/03/10 01:52:14;;;;;;;24.15;17.50;;;;;;;-1.20;100.00;99281.72;5039569;28;20236;-42
2023/03/10 01:54:43;;;;;;;28.67;19.17;;;;;;;-1.32;100.00;99278.41;5036765;28;20182;-42
2023/03/10 01:57:12;;;;;;;26.48;19.30;;;;;;;-1.31;100.00;99267.03;5041452;28;20204;-45
2023/03/10 01:59:39;;;;;;;24.48;17.52;;;;;;;-1.31;100.00;99255.66;5053937;28;20176;-43
2023/03/10 02:02:05;;;;;;;21.08;15.95;;;;;;;-1.34;100.00;99263.56;5041972;28;20172;-43
2023/03/10 02:04:49;;;;;;;22.92;16.50;;;;;;;-1.31;100.00;99256.50;5038890;28;20594;-42
2023/03/10 02:07:23;;;;;;;26.13;17.65;;;;;;;-1.28;100.00;99251.19;5037400;28;20184;-45
2023/03/10 02:09:51;;;;;;;26.85;18.55;;;;;;;-1.29;100.00;99253.84;5044752;28;20543;-40
2023/03/10 02:12:19;;;;;;;23.45;16.65;;;;;;;-1.28;100.00;99240.69;5041352;28;20686;-42
2023/03/10 02:14:46;;;;;;;25.80;18.05;;;;;;;-1.28;100.00;99245.94;5037885;28;20172;-44
2023/03/10 02:17:18;;;;;;;27.42;17.00;;;;;;;-1.33;100.00;99245.16;5035162;28;20184;-42
2023/03/10 02:20:03;;;;;;;23.60;17.33;;;;;;;-1.34;100.00;99235.53;5042941;28;20183;-42
2023/03/10 02:22:30;;;;;;;24.75;16.85;;;;;;;-1.35;100.00;99238.19;5040099;28;20208;-39
2023/03/10 02:25:13;;;;;;;21.73;15.73;;;;;;;-1.34;100.00;99234.66;5046074;28;20179;-42
2023/03/10 02:27:39;;;;;;;21.02;15.35;;;;;;;-1.38;100.00;99225.94;5038548;28;20646;-42
2023/03/10 02:30:13;;;;;;;22.85;16.75;;;;;;;-1.43;100.00;99214.66;5037214;28;20172;-42
2023/03/10 02:32:46;;;;;;;23.98;17.17;;;;;;;-1.46;100.00;99217.34;5051134;28;20242;-47
2023/03/10 02:35:12;;;;;;;25.92;17.73;;;;;;;-1.47;100.00;99215.59;5040955;28;20191;-46
2023/03/10 02:37:49;;;;;;;23.90;16.95;;;;;;;-1.47;100.00;99205.09;5040923;28;20657;-48
2023/03/10 02:40:39;;;;;;;29.05;20.73;;;;;;;-1.48;100.00;99198.97;5037409;28;20722;-48
2023/03/10 02:43:33;;;;;;;25.75;17.85;;;;;;;-1.46;100.00;99205.06;5041746;28;20203;-48
2023/03/10 02:46:12;;;;;;;26.77;19.77;;;;;;;-1.44;100.00;99197.19;5053717;28;20761;-46
2023/03/10 02:48:41;;;;;;;29.88;20.55;;;;;;;-1.41;100.00;99194.50;5047937;28;20208;-48
2023/03/10 02:51:17;;;;;;;29.05;21.27;;;;;;;-1.34;100.00;99192.63;5032616;28;20256;-46
2023/03/10 02:53:43;;;;;;;30.35;21.15;;;;;;;-1.39;100.00;99171.69;5046426;28;20696;-47
2023/03/10 02:56:10;;;;;;;31.67;22.10;;;;;;;-1.29;100.00;99175.91;5042722;28;20198;-46
2023/03/10 02:58:38;;;;;;;33.17;22.38;;;;;;;-1.34;100.00;99177.72;5039251;28;20254;-47
2023/03/10 03:01:06;;;;;;;30.60;21.73;;;;;;;-1.29;100.00;99177.66;5043504;28;20398;-47
2023/03/10 03:03:36;;;;;;;32.45;23.50;;;;;;;-1.26;100.00;99169.72;5039224;28;20202;-46
2023/03/10 03:06:02;;;;;;;29.80;22.65;;;;;;;-1.26;100.00;99169.72;5035063;28;20183;-43
2023/03/10 03:08:28;;;;;;;34.65;25.40;;;;;;;-1.21;100.00;99167.03;5029537;28;20186;-43
2023/03/10 03:10:55;;;;;;;37.58;25.05;;;;;;;-1.17;100.00;99159.06;5029949;28;20553;-43
2023/03/10 03:13:21;;;;;;;37.85;25.80;;;;;;;-1.11;100.00;99166.84;5031173;28;20191;-45
2023/03/10 03:15:47;;;;;;;36.33;24.98;;;;;;;-1.00;100.00;99158.75;5029472;28;20537;-43
2023/03/10 03:18:13;;;;;;;36.50;26.27;;;;;;;-0.93;100.00;99168.25;5029685;28;20176;-46
2023/03/10 03:20:40;;;;;;;37.88;25.58;;;;;;;-0.90;100.00;99157.69;5045970;28;20331;-44
2023/03/10 03:23:06;;;;;;;42.05;27.25;;;;;;;-0.88;100.00;99165.53;5013176;28;20191;-45
2023/03/10 03:25:36;;;;;;;35.65;24.63;;;;;;;-0.84;100.00;99162.81;5030074;28;20263;-42
2023/03/10 03:28:01;;;;;;;34.13;24.45;;;;;;;-0.82;100.00;99159.31;5029433;28;20626;-44
2023/03/10 03:30:27;;;;;;;32.80;23.50;;;;;;;-0.75;100.00;99161.78;5037742;28;20219;-44
2023/03/10 03:32:56;;;;;;;32.60;23.02;;;;;;;-0.73;100.00;99148.63;5040434;28;20207;-41
2023/03/10 03:35:25;;;;;;;33.38;23.23;;;;;;;-0.67;100.00;99154.63;5036388;28;20266;-45
2023/03/10 03:37:51;;;;;;;32.35;24.17;;;;;;;-0.67;100.00;99148.50;5037955;28;20184;-44
2023/03/10 03:40:17;;;;;;;31.02;22.77;;;;;;;-0.65;100.00;99151.97;5044782;28;20192;-44
2023/03/10 03:42:48;;;;;;;31.75;23.20;;;;;;;-0.64;100.00;99144.03;5039570;28;20208;-41
2023/03/10 03:45:16;;;;;;;33.03;22.58;;;;;;;-0.61;100.00;99140.50;5045267;28;20366;-43
2023/03/10 03:47:42;;;;;;;31.13;22.80;;;;;;;-0.61;100.00;99132.59;5048367;28;20245;-43
2023/03/10 03:50:10;;;;;;;31.83;22.73;;;;;;;-0.61;100.00;99124.72;5037012;28;20210;-45
2023/03/10 03:52:36;;;;;;;30.15;21.60;;;;;;;-0.62;100.00;99123.81;5044840;28;20265;-40
2023/03/10 03:55:02;;;;;;;32.08;22.73;;;;;;;-0.58;100.00;99131.66;5044351;28;20180;-45
2023/03/10 03:57:27;;;;;;;31.08;22.25;;;;;;;-0.55;100.00;99126.34;5040108;28;20187;-44
2023/03/10 03:59:53;;;;;;;31.20;22.17;;;;;;;-0.56;100.00;99119.34;5043207;28;20227;-45
2023/03/10 04:02:19;;;;;;;30.00;21.92;;;;;;;-0.58;100.00;99129.03;5041643;28;20279;-46
2023/03/10 04:04:45;;;;;;;28.58;19.70;;;;;;;-0.57;100.00;99113.22;5045543;28;20348;-46
2023/03/10 04:07:11;;;;;;;29.80;21.65;;;;;;;-0.58;100.00;99115.91;5040356;28;20263;-46
2023/03/10 04:09:41;;;;;;;29.10;20.88;;;;;;;-0.60;100.00;99096.66;5039804;28;20650;-47
2023/03/10 04:12:08;;;;;;;30.13;21.35;;;;;;;-0.55;100.00;99105.28;5040582;28;20208;-47
2023/03/10 04:14:35;;;;;;;28.10;19.52;;;;;;;-0.51;100.00;99110.44;5042378;28;20674;-46
2023/03/10 04:17:03;;;;;;;29.35;19.80;;;;;;;-0.43;100.00;99102.41;5043061;28;20283;-48
2023/03/10 04:19:29;;;;;;;26.90;18.85;;;;;;;-0.49;100.00;99099.91;5041478;28;20172;-46
2023/03/10 04:22:01;;;;;;;26.95;18.77;;;;;;;-0.52;100.00;99098.22;5040466;28;20210;-46
2023/03/10 04:24:30;;;;;;;27.27;18.95;;;;;;;-0.42;100.00;99091.88;5042301;28;20175;-47
2023/03/10 04:26:57;;;;;;;29.60;19.65;;;;;;;-0.48;100.00;99101.63;5048999;28;20314;-44
2023/03/10 04:29:23;;;;;;;26.92;20.88;;;;;;;-0.49;100.00;99089.38;5041339;28;20176;-44
2023/03/10 04:31:50;;;;;;;24.80;19.25;;;;;;;-0.51;100.00;99092.03;5040794;28;20257;-46
2023/03/10 04:34:17;;;;;;;28.33;19.60;;;;;;;-0.46;100.00;99090.19;5042210;28;20192;-45
2023/03/10 04:36:43;;;;;;;23.85;18.13;;;;;;;-0.39;100.00;99090.94;5041970;28;20175;-47
2023/03/10 04:39:08;;;;;;;23.10;17.90;;;;;;;-0.39;100.00;99090.03;5039901;28;20502;-45
2023/03/10 04:41:35;;;;;;;26.35;18.98;;;;;;;-0.42;100.00;99081.34;5038161;28;20163;-46
2023/03/10 04:44:02;;;;;;;26.40;19.48;;;;;;;-0.38;100.00;99086.53;5025614;28;20200;-46
2023/03/10 04:46:30;;;;;;;26.10;19.00;;;;;;;-0.40;100.00;99083.91;5048312;28;20187;-47
2023/03/10 04:48:56;;;;;;;24.30;17.27;;;;;;;-0.30;100.00;99076.72;5045849;28;20179;-45
2023/03/10 04:51:22;;;;;;;22.63;17.00;;;;;;;-0.32;100.00;99075.88;5038853;28;20246;-46
2023/03/10 04:53:50;;;;;;;25.50;17.77;;;;;;;-0.27;100.00;99074.84;5034146;28;20204;-45
2023/03/10 04:56:16;;;;;;;24.20;17.70;;;;;;;-0.26;100.00;99078.38;5034282;28;20225;-46
2023/03/10 04:58:42;;;;;;;26.40;18.13;;;;;;;-0.26;100.00;99071.34;5043368;28;20806;-46
2023/03/10 05:01:10;;;;;;;24.65;17.55;;;;;;;-0.24;100.00;99069.53;5046890;28;20172;-48
2023/03/10 05:03:40;;;;;;;24.60;18.02;;;;;;;-0.25;100.00;99057.25;5046544;28;20636;-46
2023/03/10 05:06:16;;;;;;;23.42;17.55;;;;;;;-0.25;100.00;99062.53;5040462;28;20250;-45
2023/03/10 05:08:46;;;;;;;23.70;18.45;;;;;;;-0.26;100.00;99058.19;5036445;28;20654;-47
2023/03/10 05:11:13;;;;;;;25.08;18.65;;;;;;;-0.21;100.00;99052.81;5032080;28;20208;-43
2023/03/10 05:13:39;;;;;;;26.80;19.10;;;;;;;-0.24;100.00;99059.00;5041313;28;20283;-45
2023/03/10 05:16:14;;;;;;;23.73;18.10;;;;;;;-0.20;100.00;99051.88;5040541;28;20179;-44
2023/03/10 05:18:40;;;;;;;24.70;18.52;;;;;;;-0.22;100.00;99045.78;5055569;28;20194;-47
2023/03/10 05:21:06;;;;;;;25.13;19.25;;;;;;;-0.22;100.00;99053.69;5047629;28;20172;-46
2023/03/10 05:23:32;;;;;;;24.15;18.55;;;;;;;-0.23;100.00;99054.59;5041559;28;20258;-48
2023/03/10 05:25:57;;;;;;;25.80;19.75;;;;;;;-0.24;100.00;99051.13;5042966;28;20191;-49
2023/03/10 05:28:25;;;;;;;26.23;19.30;;;;;;;-0.26;100.00;99057.31;5020925;28;20262;-46
2023/03/10 05:30:51;;;;;;;23.42;18.83;;;;;;;-0.25;100.00;99056.41;5041269;28;20203;-46
2023/03/10 05:33:16;;;;;;;26.08;19.45;;;;;;;-0.16;100.00;99050.06;5044230;28;20618;-47
2023/03/10 05:35:42;;;;;;;23.33;18.75;;;;;;;-0.18;100.00;99052.72;5042999;28;20210;-46
2023/03/10 05:38:08;;;;;;;27.23;19.65;;;;;;;-0.22;100.00;99053.69;5043577;28;20682;-47
2023/03/10 05:40:33;;;;;;;26.10;17.77;;;;;;;-0.18;100.00;99058.00;5046739;28;20176;-46
2023/03/10 05:43:00;;;;;;;24.27;18.40;;;;;;;-0.22;100.00;99048.44;5043230;28;20214;-46
2023/03/10 05:45:27;;;;;;;21.58;16.42;;;;;;;-0.22;100.00;99048.44;5044981;28;20680;-46
2023/03/10 05:47:53;;;;;;;22.83;17.20;;;;;;;-0.16;100.00;99044.81;5040599;28;20191;-45
2023/03/10 05:50:18;;;;;;;22.42;16.63;;;;;;;-0.21;100.00;99047.53;5040980;28;20722;-45
2023/03/10 05:52:44;;;;;;;21.17;16.48;;;;;;;-0.22;100.00;99067.75;5039263;28;20222;-44
2023/03/10 05:55:13;;;;;;;21.33;15.52;;;;;;;-0.19;100.00;99060.69;5040069;28;20271;-45
2023/03/10 05:57:40;;;;;;;20.55;15.93;;;;;;;-0.21;100.00;99052.81;5042751;28;20175;-45
2023/03/10 06:00:09;;;;;;;21.92;16.08;;;;;;;-0.15;100.00;99044.78;5039599;28;20183;-45
2023/03/10 06:02:39;;;;;;;20.08;16.23;;;;;;;-0.19;100.00;99044.88;5038082;28;20192;-45
2023/03/10 06:05:07;;;;;;;19.95;15.93;;;;;;;-0.19;100.00;99047.50;5038856;28;20179;-46
2023/03/10 06:07:34;;;;;;;21.27;15.90;;;;;;;-0.19;100.00;99050.16;5037281;28;20188;-46
2023/03/10 06:10:00;;;;;;;19.50;15.23;;;;;;;-0.17;100.00;99030.78;5037697;28;20187;-45
2023/03/10 06:12:25;;;;;;;21.98;16.55;;;;;;;-0.21;100.00;99026.50;5046545;28;20203;-47
2023/03/10 06:14:51;;;;;;;22.35;16.30;;;;;;;-0.21;100.00;99037.00;5038546;28;20172;-45
2023/03/10 06:17:16;;;;;;;18.65;15.75;;;;;;;-0.21;100.00;99037.00;5040706;28;20195;-45
2023/03/10 06:19:41;;;;;;;20.88;16.13;;;;;;;-0.25;100.00;99043.25;5035496;28;20183;-44
2023/03/10 06:22:07;;;;;;;22.77;17.33;;;;;;;-0.21;100.00;99051.03;5034278;28;20262;-44
2023/03/10 06:24:33;;;;;;;20.52;16.13;;;;;;;-0.20;100.00;99059.78;5047585;28;20212;-46
2023/03/10 06:26:58;;;;;;;21.13;16.33;;;;;;;-0.18;100.00;99060.63;5047601;28;20183;-44
2023/03/10 06:29:23;;;;;;;19.30;15.65;;;;;;;-0.19;100.00;99055.41;5032001;28;20180;-44
2023/03/10 06:31:49;;;;;;;19.10;15.82;;;;;;;-0.13;100.00;99061.41;5044188;28;20298;-43
2023/03/10 06:34:15;;;;;;;19.55;15.93;;;;;;;-0.18;100.00;99050.09;5037081;28;20187;-44
2023/03/10 06:36:40;;;;;;;20.42;16.25;;;;;;;-0.21;100.00;99063.34;5042709;28;20195;-45
2023/03/10 06:39:06;;;;;;;19.92;15.80;;;;;;;-0.14;100.00;99043.84;5037782;28;20174;-44
2023/03/10 06:41:33;;;;;;;19.13;15.73;;;;;;;-0.21;100.00;99050.19;5034107;28;20172;-44
2023/03/10 06:43:59;;;;;;;19.42;16.17;;;;;;;-0.19;100.00;99045.75;5045741;28;20207;-44
2023/03/10 06:46:24;;;;;;;17.77;15.05;;;;;;;-0.19;100.00;99053.63;5041443;28;20227;-45
2023/03/10 06:48:50;;;;;;;15.93;14.10;;;;;;;-0.18;100.00;99054.50;5039188;28;20626;-43
2023/03/10 06:51:18;;;;;;;16.35;13.70;;;;;;;-0.09;100.00;99063.06;5038939;28;20211;-45
2023/03/10 06:53:45;;;;;;;17.58;13.68;;;;;;;-0.09;100.00;99064.81;5038184;28;20204;-45
2023/03/10 06:56:16;;;;;;;16.55;13.50;;;;;;;-0.13;100.00;99056.13;5039599;28;20176;-46
2023/03/10 06:58:43;;;;;;;15.48;12.07;;;;;;;-0.06;100.00;99059.50;5037461;28;20180;-45
2023/03/10 07:01:21;;;;;;;17.52;14.40;;;;;;;-0.08;100.00;99054.25;5040406;28;20176;-45
2023/03/10 07:03:47;;;;;;;17.20;14.25;;;;;;;-0.15;100.00;99063.19;5038347;28;20195;-45
2023/03/10 07:06:12;;;;;;;16.00;13.32;;;;;;;-0.18;100.00;99052.72;5048292;28;20262;-44
2023/03/10 07:08:38;;;;;;;16.30;12.70;;;;;;;-0.16;100.00;99071.97;5034756;28;20171;-44
2023/03/10 07:11:03;;;;;;;15.25;12.38;;;;;;;-0.11;100.00;99059.59;5038850;28;20235;-43
2023/03/10 07:13:29;;;;;;;16.88;13.02;;;;;;;-0.10;100.00;99050.78;5042417;28;20215;-47
2023/03/10 07:15:55;;;;;;;15.75;12.82;;;;;;;-0.09;100.00;99065.69;5038787;28;20294;-45
2023/03/10 07:18:21;;;;;;;15.45;13.27;;;;;;;-0.11;100.00;99050.81;5037583;28;20183;-45
2023/03/10 07:20:46;;;;;;;16.92;13.80;;;;;;;-0.10;100.00;99066.56;5038709;28;20186;-45
2023/03/10 07:23:13;;;;;;;15.88;12.82;;;;;;;-0.02;100.00;99058.50;5038858;28;20191;-46
2023/03/10 07:25:39;;;;;;;17.17;12.88;;;;;;;-0.05;100.00;99059.44;5036137;28;20430;-46
2023/03/10 07:28:05;;;;;;;18.73;13.30;;;;;;;-0.03;100.00;99056.75;5036399;28;20418;-45
2023/03/10 07:30:32;;;;;;;18.20;13.10;;;;;;;0.07;100.00;99058.28;5039740;28;20175;-47
2023/03/10 07:32:57;;;;;;;21.48;14.27;;;;;;;0.04;100.00;99054.84;5035939;28;20198;-45
2023/03/10 07:35:23;;;;;;;19.92;14.07;;;;;;;0.07;100.00;99052.16;5033770;28;20199;-43
2023/03/10 07:37:48;;;;;;;17.48;13.80;;;;;;;0.06;100.00;99059.16;5039090;28;20711;-43
2023/03/10 07:40:14;;;;;;;14.98;12.60;;;;;;;0.03;100.00;99059.25;5047007;28;20544;-47
2023/03/10 07:42:42;;;;;;;17.83;12.90;;;;;;;0.02;100.00;99062.78;5039955;28;20199;-49
2023/03/10 07:45:09;;;;;;;16.75;13.65;;;;;;;0.05;100.00;99059.22;5047501;28;20175;-47
2023/03/10 07:47:34;;;;;;;17.65;13.32;;;;;;;0.08;100.00;99051.25;5039179;28;20559;-48
2023/03/10 07:50:00;;;;;;;18.58;14.43;;;;;;;0.12;100.00;99056.41;5041948;28;20198;-46
2023/03/10 07:52:28;;;;;;;20.92;14.40;;;;;;;0.07;100.00;99076.72;5037410;28;20648;-46
2023/03/10 07:54:53;;;;;;;18.67;14.32;;;;;;;0.09;100.00;99072.28;5039221;28;20187;-47
2023/03/10 07:57:19;;;;;;;18.92;14.48;;;;;;;0.22;100.00;99070.22;5045963;28;20637;-48
2023/03/10 07:59:44;;;;;;;20.83;15.93;;;;;;;0.16;100.00;99084.38;5041095;28;20720;-46
2023/03/10 08:02:12;;;;;;;20.83;15.35;;;;;;;0.19;100.00;99078.19;5040313;28;20184;-46
2023/03/10 08:04:37;;;;;;;21.10;15.85;;;;;;;0.22;100.00;99080.75;5041793;28;20242;-47
2023/03/10 08:07:03;;;;;;;19.35;16.17;;;;;;;0.22;100.00;99072.84;5039322;28;20187;-45
2023/03/10 08:09:29;;;;;;;20.40;15.98;;;;;;;0.27;100.00;99073.59;5038518;28;20258;-46
2023/03/10 08:11:58;;;;;;;23.05;14.40;;;;;;;0.36;100.00;99085.69;5039751;28;20191;-48
2023/03/10 08:14:24;;;;;;;19.73;14.98;;;;;;;0.36;100.00;99076.00;5039026;28;20191;-47
2023/03/10 08:16:50;;;;;;;18.58;14.82;;;;;;;0.34;100.00;99085.69;5040642;28;20551;-46
2023/03/10 08:19:16;;;;;;;18.08;13.73;;;;;;;0.38;100.00;99079.47;5041848;28;20210;-47
2023/03/10 08:21:42;;;;;;;18.33;14.35;;;;;;;0.48;100.00;99079.22;5037480;28;20176;-47
2023/03/10 08:24:08;;;;;;;17.40;13.93;;;;;;;0.44;100.00;99082.81;5042333;28;20665;-47
2023/03/10 08:26:34;;;;;;;20.35;14.90;;;;;;;0.37;100.00;99082.13;5046229;28;20262;-47
2023/03/10 08:28:59;;;;;;;15.82;13.52;;;;;;;0.39;100.00;99088.22;5041562;28;20262;-45
2023/03/10 08:31:25;;;;;;;17.88;14.98;;;;;;;0.45;100.00;99085.44;5039467;28;20200;-48
2023/03/10 08:33:54;;;;;;;19.80;15.40;;;;;;;0.44;100.00;99101.28;5043540;28;20218;-45
2023/03/10 08:36:22;;;;;;;19.05;15.77;;;;;;;0.40;100.00;99106.63;5043088;28;20186;-46
2023/03/10 08:38:49;;;;;;;19.23;15.05;;;;;;;0.41;100.00;99100.44;5041862;28;20209;-47
2023/03/10 08:41:19;;;;;;;15.38;13.32;;;;;;;0.43;100.00;99105.69;5040034;28;20184;-46
2023/03/10 08:43:45;;;;;;;19.10;14.95;;;;;;;0.51;100.00;99108.16;5046201;28;20697;-47
2023/03/10 08:46:12;;;;;;;17.70;14.98;;;;;;;0.45;100.00;99111.78;5042847;28;20559;-45
2023/03/10 08:48:38;;;;;;;16.42;14.07;;;;;;;0.43;100.00;99118.00;5036007;28;20605;-48
2023/03/10 08:51:04;;;;;;;17.75;14.43;;;;;;;0.47;100.00;99117.88;5041209;28;20216;-47
2023/03/10 08:53:32;;;;;;;16.58;14.25;;;;;;;0.50;100.00;99120.44;5038689;28;20203;-47
2023/03/10 08:55:58;;;;;;;19.27;14.43;;;;;;;0.47;100.00;99117.03;5042197;28;20207;-47
2023/03/10 08:58:23;;;;;;;16.60;13.50;;;;;;;0.49;100.00;99112.59;5042920;28;20183;-47
2023/03/10 09:00:49;;;;;;;15.65;13.98;;;;;;;0.49;100.00;99120.50;5045797;28;20176;-47
2023/03/10 09:03:15;;;;;;;15.43;13.27;;;;;;;0.58;100.00;99109.72;5038546;28;20203;-48
2023/03/10 09:05:40;;;;;;;17.50;14.32;;;;;;;0.65;100.00;99105.16;5049888;28;20219;-47
2023/03/10 09:08:07;;;;;;;16.50;13.98;;;;;;;0.70;100.00;99098.88;5043648;28;20890;-47
2023/03/10 09:10:34;;;;;;;16.60;13.63;;;;;;;0.68;100.00;99103.31;5038582;28;20203;-47
2023/03/10 09:12:59;;;;;;;15.52;13.75;;;;;;;0.79;100.00;99116.22;5036955;28;20296;-47
2023/03/10 09:15:25;;;;;;;17.60;12.93;;;;;;;0.82;100.00;99106.44;5036044;28;20631;-47
2023/03/10 09:17:50;;;;;;;14.20;12.73;;;;;;;0.83;100.00;99096.75;5040343;28;20188;-48
2023/03/10 09:20:16;;;;;;;14.65;12.93;;;;;;;0.81;100.00;99098.59;5038365;28;20191;-48
2023/03/10 09:22:42;;;;;;;16.23;12.93;;;;;;;0.88;100.00;99112.47;5038361;28;20671;-47
2023/03/10 09:25:09;;;;;;;15.57;12.40;;;;;;;0.81;100.00;99117.03;5038775;28;20187;-46
2023/03/10 09:27:34;;;;;;;16.13;13.13;;;;;;;0.86;100.00;99116.91;5045474;28;20211;-49
2023/03/10 09:30:00;;;;;;;15.00;12.82;;;;;;;0.87;100.00;99130.03;5044497;28;20484;-46
2023/03/10 09:32:26;;;;;;;14.25;12.13;;;;;;;1.00;100.00;99125.31;5035328;28;20222;-46
2023/03/10 09:34:51;;;;;;;11.85;10.15;;;;;;;0.97;100.00;99121.00;5035643;28;20646;-48
2023/03/10 09:37:17;;;;;;;11.73;10.23;;;;;;;0.98;99.04;99120.09;5039080;28;20187;-47
2023/03/10 09:39:42;;;;;;;10.80;9.70;;;;;;;1.01;98.81;99116.50;5039580;28;20733;-46
2023/03/10 09:42:11;;;;;;;11.70;9.95;;;;;;;1.00;97.64;99120.03;5036163;28;20187;-46
2023/03/10 09:44:51;;;;;;;11.00;9.90;;;;;;;1.09;97.15;99109.22;5041730;28;20184;-47
2023/03/10 09:47:39;;;;;;;11.23;9.73;;;;;;;1.25;96.82;99107.06;5043217;28;20544;-46
2023/03/10 09:50:13;;;;;;;12.27;9.38;;;;;;;1.33;96.23;99112.97;5040107;28;20212;-47
2023/03/10 09:52:45;;;;;;;11.07;9.70;;;;;;;1.35;95.39;99118.19;5040754;28;20569;-46
2023/03/10 09:55:21;;;;;;;10.18;9.13;;;;;;;1.32;94.33;99111.25;5036255;28;20521;-46
2023/03/10 09:57:51;;;;;;;10.50;8.93;;;;;;;1.11;94.31;99103.91;5038991;28;20296;-47
2023/03/10 10:00:21;;;;;;;11.43;9.07;;;;;;;1.10;94.28;99105.69;5039201;28;20632;-47
2023/03/10 10:02:50;;;;;;;13.90;9.40;;;;;;;1.10;93.90;99105.69;5041785;28;20203;-46
2023/03/10 10:05:24;;;;;;;11.10;9.45;;;;;;;1.20;93.87;99112.47;5042441;28;20536;-47
2023/03/10 10:08:00;;;;;;;11.15;9.25;;;;;;;1.23;93.75;99101.81;5037875;28;20563;-48
2023/03/10 10:10:28;;;;;;;13.45;9.40;;;;;;;1.30;94.22;99110.41;5039233;28;20177;-46
2023/03/10 10:12:59;;;;;;;10.75;9.18;;;;;;;1.17;93.86;99111.66;5035665;28;20203;-48
2023/03/10 10:15:29;;;;;;;11.63;9.43;;;;;;;1.27;93.98;99112.25;5038223;28;20736;-48
2023/03/10 10:18:01;;;;;;;10.07;8.57;;;;;;;1.34;93.75;99106.78;5040605;28;20227;-46
2023/03/10 10:20:37;;;;;;;10.98;9.02;;;;;;;1.27;93.51;99114.91;5039454;28;20283;-45
2023/03/10 10:23:12;;;;;;;13.40;9.40;;;;;;;1.29;93.31;99105.16;5041572;28;20211;-46
2023/03/10 10:25:38;;;;;;;10.63;8.38;;;;;;;1.37;93.88;99103.19;5043116;28;20189;-46
2023/03/10 10:28:14;;;;;;;10.93;9.48;;;;;;;1.27;93.69;99096.44;5038577;28;20702;-45
2023/03/10 10:30:39;;;;;;;12.77;9.40;;;;;;;1.40;93.97;99103.97;5038949;28;20535;-46
2023/03/10 10:33:10;;;;;;;12.10;9.07;;;;;;;1.31;93.86;99106.00;5039345;28;20287;-44
2023/03/10 10:35:58;;;;;;;12.20;9.43;;;;;;;1.31;94.00;99104.25;5039490;28;20186;-45
2023/03/10 10:38:27;;;;;;;11.60;8.93;;;;;;;1.38;93.79;99107.56;5039173;28;20184;-46
2023/03/10 10:41:20;;;;;;;13.25;9.50;;;;;;;1.39;94.04;99096.09;5037550;28;20174;-46
2023/03/10 10:43:47;;;;;;;13.73;9.60;;;;;;;1.32;94.38;99115.66;5034242;28;20223;-47
2023/03/10 10:46:14;;;;;;;12.95;9.55;;;;;;;1.37;94.51;99113.75;5042306;28;20172;-47
2023/03/10 10:48:44;;;;;;;13.00;9.50;;;;;;;1.44;94.96;99117.94;5038080;28;20596;-46
2023/03/10 10:51:33;;;;;;;13.07;10.07;;;;;;;1.44;95.60;99118.81;5038580;28;20294;-45
2023/03/10 10:54:16;;;;;;;14.73;10.13;;;;;;;1.53;95.88;99120.34;5033601;28;20693;-47
2023/03/10 10:56:51;;;;;;;14.23;10.15;;;;;;;1.44;95.82;99126.75;5043718;28;20237;-46
2023/03/10 10:59:22;;;;;;;12.32;9.68;;;;;;;1.42;95.99;99119.75;5034994;28;20229;-44
2023/03/10 11:02:31;;;;;;;11.32;9.90;;;;;;;1.51;96.13;99115.97;5034630;28;20176;-46
2023/03/10 11:05:14;;;;;;;11.88;9.95;;;;;;;1.57;96.24;99115.81;5017765;28;20197;-45
2023/03/10 11:07:40;;;;;;;10.07;8.63;;;;;;;1.49;95.81;99121.31;5038468;28;20179;-46
2023/03/10 11:10:15;;;;;;;8.90;7.40;;;;;;;1.57;95.21;99118.44;5044682;28;20227;-46
2023/03/10 11:12:56;;;;;;;7.18;6.47;;;;;;;1.66;94.17;99110.25;5038162;28;20297;-45
2023/03/10 11:15:32;;;;;;;7.22;6.22;;;;;;;1.55;93.37;99112.34;5034274;28;20179;-45
2023/03/10 11:18:08;;;;;;;8.45;6.70;;;;;;;1.68;92.28;99103.16;5041588;28;20187;-45
2023/03/10 11:20:50;;;;;;;9.13;6.10;;;;;;;1.61;91.13;99102.47;5037987;28;20166;-46